sensor_id;sensor_type;location;lat;lon;timestamp;P1;durP1;ratioP1;P2;durP2;ratioP2
29712;SDS011;16623;53.632;10.016;2023-04-01T00:00:28;13.93;;;7.35;;
29712;SDS011;16623;53.632;10.016;2023-04-01T00:02:53;19.05;;;6.82;;
29712;SDS011;16623;53.632;10.016;2023-04-01T00:05:19;13.68;;;7.13;;
29712;SDS011;16623;53.632;10.016;2023-04-01T00:07:44;15.93;;;7.00;;
29712;SDS011;16623;53.632;10.016;2023-04-01T00:10:11;21.65;;;8.82;;
29712;SDS011;16623;53.632;10.016;2023-04-01T00:12:38;15.68;;;6.97;;
29712;SDS011;16623;53.632;10.016;2023-04-01T00:15:05;15.90;;;7.13;;
29712;SDS011;16623;53.632;10.016;2023-04-01T00:17:32;15.88;;;6.88;;
29712;SDS011;16623;53.632;10.016;2023-04-01T00:19:58;12.18;;;6.43;;
29712;SDS011;16623;53.632;10.016;2023-04-01T00:22:24;11.90;;;6.47;;
29712;SDS011;16623;53.632;10.016;2023-04-01T00:24:51;13.52;;;7.18;;
29712;SDS011;16623;53.632;10.016;2023-04-01T00:27:17;12.23;;;7.63;;
29712;SDS011;16623;53.632;10.016;2023-04-01T00:29:44;17.63;;;6.40;;
29712;SDS011;16623;53.632;10.016;2023-04-01T00:32:11;14.38;;;7.57;;
29712;SDS011;16623;53.632;10.016;2023-04-01T00:34:37;18.38;;;8.38;;
29712;SDS011;16623;53.632;10.016;2023-04-01T00:37:02;12.50;;;7.30;;
29712;SDS011;16623;53.632;10.016;2023-04-01T00:39:28;16.95;;;6.72;;
29712;SDS011;16623;53.632;10.016;2023-04-01T00:41:55;11.18;;;6.50;;
29712;SDS011;16623;53.632;10.016;2023-04-01T00:44:22;14.48;;;6.85;;
29712;SDS011;16623;53.632;10.016;2023-04-01T00:46:50;13.82;;;7.18;;
29712;SDS011;16623;53.632;10.016;2023-04-01T00:49:17;12.98;;;6.78;;
29712;SDS011;16623;53.632;10.016;2023-04-01T00:51:46;13.98;;;6.70;;
29712;SDS011;16623;53.632;10.016;2023-04-01T00:54:15;13.60;;;6.57;;
29712;SDS011;16623;53.632;10.016;2023-04-01T00:56:58;19.90;;;6.38;;
29712;SDS011;16623;53.632;10.016;2023-04-01T00:59:27;17.33;;;7.00;;
29712;SDS011;16623;53.632;10.016;2023-04-01T01:01:56;14.82;;;7.07;;
29712;SDS011;16623;53.632;10.016;2023-04-01T01:04:26;19.15;;;6.65;;
29712;SDS011;16623;53.632;10.016;2023-04-01T01:09:46;12.65;;;5.93;;
29712;SDS011;16623;53.632;10.016;2023-04-01T01:12:21;13.48;;;6.72;;
29712;SDS011;16623;53.632;10.016;2023-04-01T01:15:02;16.05;;;6.75;;
29712;SDS011;16623;53.632;10.016;2023-04-01T01:20:08;15.07;;;8.27;;
29712;SDS011;16623;53.632;10.016;2023-04-01T01:25:56;12.23;;;7.45;;
29712;SDS011;16623;53.632;10.016;2023-04-01T01:31:23;9.23;;;6.43;;
29712;SDS011;16623;53.632;10.016;2023-04-01T01:34:00;12.82;;;7.22;;
29712;SDS011;16623;53.632;10.016;2023-04-01T01:36:28;24.25;;;8.65;;
29712;SDS011;16623;53.632;10.016;2023-04-01T01:38:59;12.98;;;7.40;;
29712;SDS011;16623;53.632;10.016;2023-04-01T01:41:28;22.00;;;7.97;;
29712;SDS011;16623;53.632;10.016;2023-04-01T01:43:56;12.20;;;8.10;;
29712;SDS011;16623;53.632;10.016;2023-04-01T01:46:24;17.52;;;7.35;;
29712;SDS011;16623;53.632;10.016;2023-04-01T01:48:52;16.98;;;7.25;;
29712;SDS011;16623;53.632;10.016;2023-04-01T01:51:19;17.73;;;7.63;;
29712;SDS011;16623;53.632;10.016;2023-04-01T01:53:46;17.90;;;7.65;;
29712;SDS011;16623;53.632;10.016;2023-04-01T01:56:12;14.05;;;7.10;;
29712;SDS011;16623;53.632;10.016;2023-04-01T01:58:42;17.50;;;7.25;;
29712;SDS011;16623;53.632;10.016;2023-04-01T02:01:17;22.17;;;9.48;;
29712;SDS011;16623;53.632;10.016;2023-04-01T02:03:48;15.38;;;6.88;;
29712;SDS011;16623;53.632;10.016;2023-04-01T02:06:16;19.00;;;7.45;;
29712;SDS011;16623;53.632;10.016;2023-04-01T02:08:55;20.90;;;8.38;;
29712;SDS011;16623;53.632;10.016;2023-04-01T02:11:28;13.48;;;7.20;;
29712;SDS011;16623;53.632;10.016;2023-04-01T02:14:01;16.30;;;8.40;;
29712;SDS011;16623;53.632;10.016;2023-04-01T02:16:36;16.48;;;7.40;;
29712;SDS011;16623;53.632;10.016;2023-04-01T02:19:08;14.93;;;8.67;;
29712;SDS011;16623;53.632;10.016;2023-04-01T02:21:37;16.27;;;7.28;;
29712;SDS011;16623;53.632;10.016;2023-04-01T02:24:36;17.05;;;7.82;;
29712;SDS011;16623;53.632;10.016;2023-04-01T02:27:04;19.10;;;8.75;;
29712;SDS011;16623;53.632;10.016;2023-04-01T02:29:31;17.13;;;8.63;;
29712;SDS011;16623;53.632;10.016;2023-04-01T02:31:57;21.55;;;7.97;;
29712;SDS011;16623;53.632;10.016;2023-04-01T02:34:23;17.20;;;9.05;;
29712;SDS011;16623;53.632;10.016;2023-04-01T02:36:50;15.60;;;8.60;;
29712;SDS011;16623;53.632;10.016;2023-04-01T02:39:16;17.13;;;7.80;;
29712;SDS011;16623;53.632;10.016;2023-04-01T02:41:42;17.85;;;9.20;;
29712;SDS011;16623;53.632;10.016;2023-04-01T02:44:10;15.07;;;8.18;;
29712;SDS011;16623;53.632;10.016;2023-04-01T02:46:37;19.42;;;8.18;;
29712;SDS011;16623;53.632;10.016;2023-04-01T02:49:03;18.17;;;8.00;;
29712;SDS011;16623;53.632;10.016;2023-04-01T02:51:29;19.10;;;8.68;;
29712;SDS011;16623;53.632;10.016;2023-04-01T02:53:55;20.52;;;8.15;;
29712;SDS011;16623;53.632;10.016;2023-04-01T02:56:21;20.13;;;8.27;;
29712;SDS011;16623;53.632;10.016;2023-04-01T02:58:47;16.17;;;8.45;;
29712;SDS011;16623;53.632;10.016;2023-04-01T03:01:12;15.88;;;8.93;;
29712;SDS011;16623;53.632;10.016;2023-04-01T03:03:38;15.65;;;8.68;;
29712;SDS011;16623;53.632;10.016;2023-04-01T03:06:08;16.92;;;8.45;;
29712;SDS011;16623;53.632;10.016;2023-04-01T03:08:35;19.13;;;7.90;;
29712;SDS011;16623;53.632;10.016;2023-04-01T03:11:00;22.45;;;8.30;;
29712;SDS011;16623;53.632;10.016;2023-04-01T03:13:26;17.02;;;9.00;;
29712;SDS011;16623;53.632;10.016;2023-04-01T03:15:53;20.00;;;8.10;;
29712;SDS011;16623;53.632;10.016;2023-04-01T03:18:18;15.45;;;7.97;;
29712;SDS011;16623;53.632;10.016;2023-04-01T03:20:45;22.58;;;10.60;;
29712;SDS011;16623;53.632;10.016;2023-04-01T03:23:10;19.20;;;9.30;;
29712;SDS011;16623;53.632;10.016;2023-04-01T03:25:36;14.98;;;8.02;;
29712;SDS011;16623;53.632;10.016;2023-04-01T03:28:02;16.40;;;8.90;;
29712;SDS011;16623;53.632;10.016;2023-04-01T03:30:28;16.13;;;9.10;;
29712;SDS011;16623;53.632;10.016;2023-04-01T03:32:56;19.90;;;9.35;;
29712;SDS011;16623;53.632;10.016;2023-04-01T03:35:22;17.38;;;9.43;;
29712;SDS011;16623;53.632;10.016;2023-04-01T03:37:47;24.25;;;9.55;;
29712;SDS011;16623;53.632;10.016;2023-04-01T03:40:15;20.98;;;10.50;;
29712;SDS011;16623;53.632;10.016;2023-04-01T03:42:40;20.50;;;9.55;;
29712;SDS011;16623;53.632;10.016;2023-04-01T03:45:06;20.75;;;9.73;;
29712;SDS011;16623;53.632;10.016;2023-04-01T03:47:32;15.48;;;10.10;;
29712;SDS011;16623;53.632;10.016;2023-04-01T03:49:57;25.00;;;10.98;;
29712;SDS011;16623;53.632;10.016;2023-04-01T03:52:23;18.70;;;10.18;;
29712;SDS011;16623;53.632;10.016;2023-04-01T03:54:48;24.30;;;11.90;;
29712;SDS011;16623;53.632;10.016;2023-04-01T03:57:14;20.13;;;11.30;;
29712;SDS011;16623;53.632;10.016;2023-04-01T03:59:39;18.40;;;10.73;;
29712;SDS011;16623;53.632;10.016;2023-04-01T04:02:05;18.70;;;10.10;;
29712;SDS011;16623;53.632;10.016;2023-04-01T04:04:30;19.33;;;11.38;;
29712;SDS011;16623;53.632;10.016;2023-04-01T04:06:57;18.27;;;10.65;;
29712;SDS011;16623;53.632;10.016;2023-04-01T04:09:23;17.10;;;10.50;;
29712;SDS011;16623;53.632;10.016;2023-04-01T04:11:49;23.10;;;11.75;;
29712;SDS011;16623;53.632;10.016;2023-04-01T04:14:15;27.05;;;11.93;;
29712;SDS011;16623;53.632;10.016;2023-04-01T04:16:41;22.58;;;10.48;;
29712;SDS011;16623;53.632;10.016;2023-04-01T04:19:06;17.10;;;10.48;;
29712;SDS011;16623;53.632;10.016;2023-04-01T04:21:32;19.88;;;10.75;;
29712;SDS011;16623;53.632;10.016;2023-04-01T04:23:58;15.25;;;11.23;;
29712;SDS011;16623;53.632;10.016;2023-04-01T04:26:25;22.33;;;10.75;;
29712;SDS011;16623;53.632;10.016;2023-04-01T04:28:51;20.63;;;10.10;;
29712;SDS011;16623;53.632;10.016;2023-04-01T04:31:23;23.13;;;11.48;;
29712;SDS011;16623;53.632;10.016;2023-04-01T04:33:50;17.45;;;10.23;;
29712;SDS011;16623;53.632;10.016;2023-04-01T04:36:16;23.13;;;13.00;;
29712;SDS011;16623;53.632;10.016;2023-04-01T04:38:42;20.35;;;11.48;;
29712;SDS011;16623;53.632;10.016;2023-04-01T04:41:11;23.75;;;12.15;;
29712;SDS011;16623;53.632;10.016;2023-04-01T04:43:47;21.45;;;11.45;;
29712;SDS011;16623;53.632;10.016;2023-04-01T04:46:15;23.15;;;11.88;;
29712;SDS011;16623;53.632;10.016;2023-04-01T04:48:41;21.90;;;12.32;;
29712;SDS011;16623;53.632;10.016;2023-04-01T04:51:11;17.88;;;11.63;;
29712;SDS011;16623;53.632;10.016;2023-04-01T04:53:39;20.38;;;11.43;;
29712;SDS011;16623;53.632;10.016;2023-04-01T04:56:04;21.00;;;12.18;;
29712;SDS011;16623;53.632;10.016;2023-04-01T04:58:30;11.50;;;6.13;;
29712;SDS011;16623;53.632;10.016;2023-04-01T05:00:55;9.82;;;5.47;;
29712;SDS011;16623;53.632;10.016;2023-04-01T05:03:20;3.72;;;2.72;;
29712;SDS011;16623;53.632;10.016;2023-04-01T05:05:53;2.33;;;2.03;;
29712;SDS011;16623;53.632;10.016;2023-04-01T05:08:19;3.10;;;2.25;;
29712;SDS011;16623;53.632;10.016;2023-04-01T05:10:45;2.65;;;1.98;;
29712;SDS011;16623;53.632;10.016;2023-04-01T05:13:11;2.22;;;1.85;;
29712;SDS011;16623;53.632;10.016;2023-04-01T05:15:37;5.35;;;2.42;;
29712;SDS011;16623;53.632;10.016;2023-04-01T05:18:02;1.83;;;1.50;;
29712;SDS011;16623;53.632;10.016;2023-04-01T05:20:28;3.45;;;1.75;;
29712;SDS011;16623;53.632;10.016;2023-04-01T05:22:57;3.15;;;2.63;;
29712;SDS011;16623;53.632;10.016;2023-04-01T05:25:24;3.92;;;2.00;;
29712;SDS011;16623;53.632;10.016;2023-04-01T05:27:50;2.53;;;2.10;;
29712;SDS011;16623;53.632;10.016;2023-04-01T05:30:16;5.22;;;2.20;;
29712;SDS011;16623;53.632;10.016;2023-04-01T05:32:41;1.70;;;1.60;;
29712;SDS011;16623;53.632;10.016;2023-04-01T05:35:08;8.82;;;2.67;;
29712;SDS011;16623;53.632;10.016;2023-04-01T05:37:34;2.47;;;2.00;;
29712;SDS011;16623;53.632;10.016;2023-04-01T05:40:01;2.22;;;1.98;;
29712;SDS011;16623;53.632;10.016;2023-04-01T05:42:27;2.42;;;1.88;;
29712;SDS011;16623;53.632;10.016;2023-04-01T05:44:53;3.88;;;2.00;;
29712;SDS011;16623;53.632;10.016;2023-04-01T05:47:18;3.15;;;2.10;;
29712;SDS011;16623;53.632;10.016;2023-04-01T05:49:44;3.92;;;1.60;;
29712;SDS011;16623;53.632;10.016;2023-04-01T05:52:09;2.85;;;1.90;;
29712;SDS011;16623;53.632;10.016;2023-04-01T05:54:35;2.95;;;2.15;;
29712;SDS011;16623;53.632;10.016;2023-04-01T05:57:01;2.00;;;1.80;;
29712;SDS011;16623;53.632;10.016;2023-04-01T05:59:28;3.58;;;2.50;;
29712;SDS011;16623;53.632;10.016;2023-04-01T06:01:56;3.58;;;2.22;;
29712;SDS011;16623;53.632;10.016;2023-04-01T06:04:21;3.50;;;2.47;;
29712;SDS011;16623;53.632;10.016;2023-04-01T06:06:47;3.95;;;2.33;;
29712;SDS011;16623;53.632;10.016;2023-04-01T06:09:14;2.38;;;1.90;;
29712;SDS011;16623;53.632;10.016;2023-04-01T06:14:28;3.30;;;2.35;;
29712;SDS011;16623;53.632;10.016;2023-04-01T06:17:04;2.60;;;1.75;;
29712;SDS011;16623;53.632;10.016;2023-04-01T06:25:27;1.73;;;1.45;;
29712;SDS011;16623;53.632;10.016;2023-04-01T06:28:44;2.20;;;2.00;;
29712;SDS011;16623;53.632;10.016;2023-04-01T06:31:10;3.80;;;2.40;;
29712;SDS011;16623;53.632;10.016;2023-04-01T06:34:00;3.22;;;1.98;;
29712;SDS011;16623;53.632;10.016;2023-04-01T06:39:27;3.13;;;2.30;;
29712;SDS011;16623;53.632;10.016;2023-04-01T06:42:20;2.15;;;1.92;;
29712;SDS011;16623;53.632;10.016;2023-04-01T06:45:52;2.17;;;1.58;;
29712;SDS011;16623;53.632;10.016;2023-04-01T06:53:44;2.03;;;1.17;;
29712;SDS011;16623;53.632;10.016;2023-04-01T06:56:28;2.47;;;1.17;;
29712;SDS011;16623;53.632;10.016;2023-04-01T06:58:56;6.22;;;1.80;;
29712;SDS011;16623;53.632;10.016;2023-04-01T07:01:32;4.03;;;1.45;;
29712;SDS011;16623;53.632;10.016;2023-04-01T07:06:59;2.47;;;1.50;;
29712;SDS011;16623;53.632;10.016;2023-04-01T07:09:31;1.83;;;1.48;;
29712;SDS011;16623;53.632;10.016;2023-04-01T07:12:00;2.10;;;1.42;;
29712;SDS011;16623;53.632;10.016;2023-04-01T07:14:35;3.22;;;2.03;;
29712;SDS011;16623;53.632;10.016;2023-04-01T07:22:45;3.28;;;1.90;;
29712;SDS011;16623;53.632;10.016;2023-04-01T07:25:07;1.95;;;1.42;;
29712;SDS011;16623;53.632;10.016;2023-04-01T07:27:38;3.28;;;1.60;;
29712;SDS011;16623;53.632;10.016;2023-04-01T07:30:06;2.35;;;1.67;;
29712;SDS011;16623;53.632;10.016;2023-04-01T07:35:35;1.25;;;1.15;;
29712;SDS011;16623;53.632;10.016;2023-04-01T07:38:10;1.65;;;1.52;;
29712;SDS011;16623;53.632;10.016;2023-04-01T07:41:11;3.80;;;1.75;;
29712;SDS011;16623;53.632;10.016;2023-04-01T07:44:09;2.22;;;1.83;;
29712;SDS011;16623;53.632;10.016;2023-04-01T07:49:45;3.03;;;1.38;;
29712;SDS011;16623;53.632;10.016;2023-04-01T07:52:33;2.13;;;1.63;;
29712;SDS011;16623;53.632;10.016;2023-04-01T07:58:14;2.80;;;1.80;;
29712;SDS011;16623;53.632;10.016;2023-04-01T08:01:19;1.70;;;1.00;;
29712;SDS011;16623;53.632;10.016;2023-04-01T08:03:57;1.10;;;0.95;;
29712;SDS011;16623;53.632;10.016;2023-04-01T08:06:44;1.80;;;1.30;;
29712;SDS011;16623;53.632;10.016;2023-04-01T08:09:21;1.77;;;1.67;;
29712;SDS011;16623;53.632;10.016;2023-04-01T08:12:02;2.00;;;1.35;;
29712;SDS011;16623;53.632;10.016;2023-04-01T08:17:35;2.97;;;1.60;;
29712;SDS011;16623;53.632;10.016;2023-04-01T08:25:37;2.38;;;1.60;;
29712;SDS011;16623;53.632;10.016;2023-04-01T08:30:50;2.28;;;1.50;;
29712;SDS011;16623;53.632;10.016;2023-04-01T08:33:24;2.65;;;1.20;;
29712;SDS011;16623;53.632;10.016;2023-04-01T08:38:46;3.90;;;1.30;;
29712;SDS011;16623;53.632;10.016;2023-04-01T08:46:56;1.77;;;1.40;;
29712;SDS011;16623;53.632;10.016;2023-04-01T08:49:56;3.17;;;1.80;;
29712;SDS011;16623;53.632;10.016;2023-04-01T08:52:37;1.20;;;0.90;;
29712;SDS011;16623;53.632;10.016;2023-04-01T08:58:22;1.98;;;1.45;;
29712;SDS011;16623;53.632;10.016;2023-04-01T09:01:14;2.60;;;1.17;;
29712;SDS011;16623;53.632;10.016;2023-04-01T09:06:55;1.40;;;1.30;;
29712;SDS011;16623;53.632;10.016;2023-04-01T09:18:31;1.67;;;1.20;;
29712;SDS011;16623;53.632;10.016;2023-04-01T09:24:02;2.88;;;1.58;;
29712;SDS011;16623;53.632;10.016;2023-04-01T09:26:35;1.20;;;1.10;;
29712;SDS011;16623;53.632;10.016;2023-04-01T09:29:23;1.52;;;1.33;;
29712;SDS011;16623;53.632;10.016;2023-04-01T09:32:12;3.40;;;2.22;;
29712;SDS011;16623;53.632;10.016;2023-04-01T09:35:33;4.85;;;1.38;;
29712;SDS011;16623;53.632;10.016;2023-04-01T09:38:09;1.63;;;1.17;;
29712;SDS011;16623;53.632;10.016;2023-04-01T09:41:10;2.40;;;1.30;;
29712;SDS011;16623;53.632;10.016;2023-04-01T09:49:48;1.95;;;1.27;;
29712;SDS011;16623;53.632;10.016;2023-04-01T09:52:52;1.38;;;1.20;;
29712;SDS011;16623;53.632;10.016;2023-04-01T10:04:10;1.40;;;1.10;;
29712;SDS011;16623;53.632;10.016;2023-04-01T10:15:45;1.98;;;1.77;;
29712;SDS011;16623;53.632;10.016;2023-04-01T10:18:37;1.52;;;1.35;;
29712;SDS011;16623;53.632;10.016;2023-04-01T10:38:48;1.85;;;0.77;;
29712;SDS011;16623;53.632;10.016;2023-04-01T10:50:37;2.38;;;1.08;;
29712;SDS011;16623;53.632;10.016;2023-04-01T11:07:08;2.60;;;1.58;;
29712;SDS011;16623;53.632;10.016;2023-04-01T11:10:10;1.15;;;1.00;;
29712;SDS011;16623;53.632;10.016;2023-04-01T11:13:26;1.10;;;0.98;;
29712;SDS011;16623;53.632;10.016;2023-04-01T11:25:20;1.90;;;1.58;;
29712;SDS011;16623;53.632;10.016;2023-04-01T11:28:24;2.30;;;1.70;;
29712;SDS011;16623;53.632;10.016;2023-04-01T11:39:44;3.67;;;2.17;;
29712;SDS011;16623;53.632;10.016;2023-04-01T11:42:43;5.22;;;2.30;;
29712;SDS011;16623;53.632;10.016;2023-04-01T11:45:32;2.30;;;2.10;;
29712;SDS011;16623;53.632;10.016;2023-04-01T11:53:40;4.80;;;3.15;;
29712;SDS011;16623;53.632;10.016;2023-04-01T11:59:13;4.78;;;3.40;;
29712;SDS011;16623;53.632;10.016;2023-04-01T12:02:13;4.18;;;2.70;;
29712;SDS011;16623;53.632;10.016;2023-04-01T12:11:05;7.18;;;3.63;;
29712;SDS011;16623;53.632;10.016;2023-04-01T12:13:59;3.92;;;1.98;;
29712;SDS011;16623;53.632;10.016;2023-04-01T12:16:58;4.95;;;3.58;;
29712;SDS011;16623;53.632;10.016;2023-04-01T12:19:46;4.05;;;2.67;;
29712;SDS011;16623;53.632;10.016;2023-04-01T12:25:03;7.85;;;4.30;;
29712;SDS011;16623;53.632;10.016;2023-04-01T12:33:15;7.25;;;3.28;;
29712;SDS011;16623;53.632;10.016;2023-04-01T12:36:07;4.65;;;3.38;;
29712;SDS011;16623;53.632;10.016;2023-04-01T12:39:02;5.75;;;4.10;;
29712;SDS011;16623;53.632;10.016;2023-04-01T12:41:50;4.57;;;3.40;;
29712;SDS011;16623;53.632;10.016;2023-04-01T12:44:31;6.95;;;3.38;;
29712;SDS011;16623;53.632;10.016;2023-04-01T12:53:06;10.52;;;6.43;;
29712;SDS011;16623;53.632;10.016;2023-04-01T12:55:54;6.85;;;4.60;;
29712;SDS011;16623;53.632;10.016;2023-04-01T13:06:40;9.38;;;4.75;;
29712;SDS011;16623;53.632;10.016;2023-04-01T13:09:45;10.25;;;5.00;;
29712;SDS011;16623;53.632;10.016;2023-04-01T13:12:44;5.97;;;3.90;;
29712;SDS011;16623;53.632;10.016;2023-04-01T13:15:30;9.75;;;5.47;;
29712;SDS011;16623;53.632;10.016;2023-04-01T13:18:04;10.25;;;4.72;;
29712;SDS011;16623;53.632;10.016;2023-04-01T13:23:36;7.70;;;3.28;;
29712;SDS011;16623;53.632;10.016;2023-04-01T13:28:51;5.65;;;2.95;;
29712;SDS011;16623;53.632;10.016;2023-04-01T13:31:38;8.20;;;4.10;;
29712;SDS011;16623;53.632;10.016;2023-04-01T13:34:44;7.43;;;3.35;;
29712;SDS011;16623;53.632;10.016;2023-04-01T13:40:40;9.10;;;4.05;;
29712;SDS011;16623;53.632;10.016;2023-04-01T13:43:14;7.38;;;4.13;;
29712;SDS011;16623;53.632;10.016;2023-04-01T13:51:13;6.28;;;3.70;;
29712;SDS011;16623;53.632;10.016;2023-04-01T13:53:52;13.43;;;4.97;;
29712;SDS011;16623;53.632;10.016;2023-04-01T13:56:41;9.73;;;4.88;;
29712;SDS011;16623;53.632;10.016;2023-04-01T13:59:29;5.78;;;3.95;;
29712;SDS011;16623;53.632;10.016;2023-04-01T14:25:17;9.88;;;4.32;;
29712;SDS011;16623;53.632;10.016;2023-04-01T14:33:20;8.18;;;4.72;;
29712;SDS011;16623;53.632;10.016;2023-04-01T14:41:48;7.63;;;4.13;;
29712;SDS011;16623;53.632;10.016;2023-04-01T14:47:16;11.50;;;3.78;;
29712;SDS011;16623;53.632;10.016;2023-04-01T14:49:53;11.75;;;4.00;;
29712;SDS011;16623;53.632;10.016;2023-04-01T14:53:25;10.77;;;5.43;;
29712;SDS011;16623;53.632;10.016;2023-04-01T15:00:46;8.65;;;4.50;;
29712;SDS011;16623;53.632;10.016;2023-04-01T15:09:34;7.45;;;3.97;;
29712;SDS011;16623;53.632;10.016;2023-04-01T15:12:34;11.43;;;4.45;;
29712;SDS011;16623;53.632;10.016;2023-04-01T15:17:42;14.93;;;4.57;;
29712;SDS011;16623;53.632;10.016;2023-04-01T15:28:46;12.07;;;4.35;;
29712;SDS011;16623;53.632;10.016;2023-04-01T15:31:27;11.77;;;4.93;;
29712;SDS011;16623;53.632;10.016;2023-04-01T15:36:56;11.57;;;4.85;;
29712;SDS011;16623;53.632;10.016;2023-04-01T15:42:36;14.90;;;5.28;;
29712;SDS011;16623;53.632;10.016;2023-04-01T15:48:13;11.85;;;5.30;;
29712;SDS011;16623;53.632;10.016;2023-04-01T15:51:06;10.57;;;6.22;;
29712;SDS011;16623;53.632;10.016;2023-04-01T15:54:47;13.05;;;5.35;;
29712;SDS011;16623;53.632;10.016;2023-04-01T15:59:47;16.83;;;5.50;;
29712;SDS011;16623;53.632;10.016;2023-04-01T16:02:30;12.02;;;5.22;;
29712;SDS011;16623;53.632;10.016;2023-04-01T16:08:10;14.18;;;5.70;;
29712;SDS011;16623;53.632;10.016;2023-04-01T16:13:04;14.13;;;4.47;;
29712;SDS011;16623;53.632;10.016;2023-04-01T16:15:59;4.50;;;3.28;;
29712;SDS011;16623;53.632;10.016;2023-04-01T16:21:43;7.88;;;4.82;;
29712;SDS011;16623;53.632;10.016;2023-04-01T16:27:08;9.48;;;3.67;;
29712;SDS011;16623;53.632;10.016;2023-04-01T16:29:51;12.23;;;4.47;;
29712;SDS011;16623;53.632;10.016;2023-04-01T16:32:41;9.88;;;3.90;;
29712;SDS011;16623;53.632;10.016;2023-04-01T16:35:17;7.50;;;4.32;;
29712;SDS011;16623;53.632;10.016;2023-04-01T16:43:44;14.70;;;5.20;;
29712;SDS011;16623;53.632;10.016;2023-04-01T16:46:36;8.88;;;3.72;;
29712;SDS011;16623;53.632;10.016;2023-04-01T16:51:40;24.88;;;4.60;;
29712;SDS011;16623;53.632;10.016;2023-04-01T16:56:54;7.22;;;3.70;;
29712;SDS011;16623;53.632;10.016;2023-04-01T16:59:36;15.23;;;4.40;;
29712;SDS011;16623;53.632;10.016;2023-04-01T17:02:16;8.75;;;4.72;;
29712;SDS011;16623;53.632;10.016;2023-04-01T17:04:49;8.77;;;4.03;;
29712;SDS011;16623;53.632;10.016;2023-04-01T17:07:40;8.07;;;4.07;;
29712;SDS011;16623;53.632;10.016;2023-04-01T17:10:32;7.90;;;3.95;;
29712;SDS011;16623;53.632;10.016;2023-04-01T17:13:24;8.40;;;4.10;;
29712;SDS011;16623;53.632;10.016;2023-04-01T17:16:03;6.97;;;3.47;;
29712;SDS011;16623;53.632;10.016;2023-04-01T17:19:02;8.75;;;3.33;;
29712;SDS011;16623;53.632;10.016;2023-04-01T17:24:51;5.13;;;3.38;;
29712;SDS011;16623;53.632;10.016;2023-04-01T17:33:11;4.82;;;2.83;;
29712;SDS011;16623;53.632;10.016;2023-04-01T17:35:53;4.78;;;3.38;;
29712;SDS011;16623;53.632;10.016;2023-04-01T17:41:31;11.27;;;4.10;;
29712;SDS011;16623;53.632;10.016;2023-04-01T17:46:50;10.52;;;4.00;;
29712;SDS011;16623;53.632;10.016;2023-04-01T17:49:47;9.65;;;4.43;;
29712;SDS011;16623;53.632;10.016;2023-04-01T17:54:55;10.63;;;4.25;;
29712;SDS011;16623;53.632;10.016;2023-04-01T18:06:09;12.27;;;4.07;;
29712;SDS011;16623;53.632;10.016;2023-04-01T18:08:53;7.65;;;4.05;;
29712;SDS011;16623;53.632;10.016;2023-04-01T18:11:39;4.53;;;2.95;;
29712;SDS011;16623;53.632;10.016;2023-04-01T18:19:52;12.18;;;2.92;;
29712;SDS011;16623;53.632;10.016;2023-04-01T18:23:11;9.27;;;3.65;;
29712;SDS011;16623;53.632;10.016;2023-04-01T18:30:34;7.53;;;3.17;;
29712;SDS011;16623;53.632;10.016;2023-04-01T18:33:05;5.57;;;3.28;;
29712;SDS011;16623;53.632;10.016;2023-04-01T18:39:32;7.40;;;3.30;;
29712;SDS011;16623;53.632;10.016;2023-04-01T18:41:42;7.30;;;3.75;;
29712;SDS011;16623;53.632;10.016;2023-04-01T18:47:21;10.38;;;4.28;;
29712;SDS011;16623;53.632;10.016;2023-04-01T18:50:05;4.95;;;2.45;;
29712;SDS011;16623;53.632;10.016;2023-04-01T18:52:43;7.18;;;3.10;;
29712;SDS011;16623;53.632;10.016;2023-04-01T18:55:24;7.07;;;3.20;;
29712;SDS011;16623;53.632;10.016;2023-04-01T18:58:11;11.05;;;3.75;;
29712;SDS011;16623;53.632;10.016;2023-04-01T19:01:07;8.07;;;3.88;;
29712;SDS011;16623;53.632;10.016;2023-04-01T19:04:08;9.80;;;3.83;;
29712;SDS011;16623;53.632;10.016;2023-04-01T19:06:50;5.22;;;2.83;;
29712;SDS011;16623;53.632;10.016;2023-04-01T19:09:26;6.18;;;3.92;;
29712;SDS011;16623;53.632;10.016;2023-04-01T19:17:25;10.85;;;4.25;;
29712;SDS011;16623;53.632;10.016;2023-04-01T19:20:20;6.68;;;4.05;;
29712;SDS011;16623;53.632;10.016;2023-04-01T19:26:00;14.18;;;4.00;;
29712;SDS011;16623;53.632;10.016;2023-04-01T19:28:35;6.10;;;2.63;;
29712;SDS011;16623;53.632;10.016;2023-04-01T19:33:40;5.88;;;2.92;;
29712;SDS011;16623;53.632;10.016;2023-04-01T19:36:35;5.80;;;3.05;;
29712;SDS011;16623;53.632;10.016;2023-04-01T19:39:27;6.72;;;2.80;;
29712;SDS011;16623;53.632;10.016;2023-04-01T19:42:26;6.80;;;3.38;;
29712;SDS011;16623;53.632;10.016;2023-04-01T19:45:19;7.57;;;3.03;;
29712;SDS011;16623;53.632;10.016;2023-04-01T19:57:05;3.28;;;2.10;;
29712;SDS011;16623;53.632;10.016;2023-04-01T20:00:01;6.95;;;2.55;;
29712;SDS011;16623;53.632;10.016;2023-04-01T20:03:44;8.35;;;3.33;;
29712;SDS011;16623;53.632;10.016;2023-04-01T20:05:48;10.13;;;3.20;;
29712;SDS011;16623;53.632;10.016;2023-04-01T20:08:45;12.57;;;3.47;;
29712;SDS011;16623;53.632;10.016;2023-04-01T20:11:22;7.90;;;3.53;;
29712;SDS011;16623;53.632;10.016;2023-04-01T20:14:00;5.40;;;2.88;;
29712;SDS011;16623;53.632;10.016;2023-04-01T20:17:32;8.15;;;3.70;;
29712;SDS011;16623;53.632;10.016;2023-04-01T20:19:44;11.05;;;3.35;;
29712;SDS011;16623;53.632;10.016;2023-04-01T20:27:51;13.73;;;3.63;;
29712;SDS011;16623;53.632;10.016;2023-04-01T20:33:40;5.78;;;3.65;;
29712;SDS011;16623;53.632;10.016;2023-04-01T20:41:30;4.75;;;2.65;;
29712;SDS011;16623;53.632;10.016;2023-04-01T20:44:11;6.50;;;3.03;;
29712;SDS011;16623;53.632;10.016;2023-04-01T20:46:45;6.40;;;2.88;;
29712;SDS011;16623;53.632;10.016;2023-04-01T20:52:52;8.35;;;3.20;;
29712;SDS011;16623;53.632;10.016;2023-04-01T20:58:29;9.23;;;3.33;;
29712;SDS011;16623;53.632;10.016;2023-04-01T21:04:18;8.40;;;3.10;;
29712;SDS011;16623;53.632;10.016;2023-04-01T21:06:58;8.07;;;3.63;;
29712;SDS011;16623;53.632;10.016;2023-04-01T21:09:29;9.93;;;3.25;;
29712;SDS011;16623;53.632;10.016;2023-04-01T21:12:22;10.65;;;2.92;;
29712;SDS011;16623;53.632;10.016;2023-04-01T21:15:03;9.80;;;2.83;;
29712;SDS011;16623;53.632;10.016;2023-04-01T21:26:52;11.00;;;4.28;;
29712;SDS011;16623;53.632;10.016;2023-04-01T21:29:35;6.65;;;2.72;;
29712;SDS011;16623;53.632;10.016;2023-04-01T21:37:59;6.90;;;3.00;;
29712;SDS011;16623;53.632;10.016;2023-04-01T21:43:20;7.85;;;3.22;;
29712;SDS011;16623;53.632;10.016;2023-04-01T21:49:34;10.63;;;2.25;;
29712;SDS011;16623;53.632;10.016;2023-04-01T21:52:49;4.40;;;2.00;;
29712;SDS011;16623;53.632;10.016;2023-04-01T21:55:45;6.82;;;1.83;;
29712;SDS011;16623;53.632;10.016;2023-04-01T21:58:28;3.58;;;1.88;;
29712;SDS011;16623;53.632;10.016;2023-04-01T22:07:11;5.78;;;2.20;;
29712;SDS011;16623;53.632;10.016;2023-04-01T22:09:51;8.80;;;2.55;;
29712;SDS011;16623;53.632;10.016;2023-04-01T22:23:10;5.32;;;1.92;;
29712;SDS011;16623;53.632;10.016;2023-04-01T22:25:51;4.95;;;2.60;;
29712;SDS011;16623;53.632;10.016;2023-04-01T22:28:39;5.40;;;2.13;;
29712;SDS011;16623;53.632;10.016;2023-04-01T22:31:06;6.07;;;2.15;;
29712;SDS011;16623;53.632;10.016;2023-04-01T22:33:51;3.83;;;2.30;;
29712;SDS011;16623;53.632;10.016;2023-04-01T22:39:56;6.22;;;2.63;;
29712;SDS011;16623;53.632;10.016;2023-04-01T22:42:43;7.45;;;2.67;;